createdAt,value
2018-06-23T00:02:16.127Z,63.80
2018-06-23T00:12:23.382Z,65.60
2018-06-23T00:17:27.285Z,65.10
2018-06-23T00:22:31.131Z,66.10
2018-06-23T00:27:34.781Z,66.70
2018-06-23T00:32:38.783Z,65.70
2018-06-23T00:37:42.496Z,66.70
2018-06-23T00:42:46.440Z,66.70
2018-06-23T00:47:50.138Z,68.10
2018-06-23T00:52:53.871Z,67.10
2018-06-23T00:57:57.621Z,66.40
2018-06-23T01:03:01.419Z,67.60
2018-06-23T01:08:04.634Z,67.80
2018-06-23T01:13:07.803Z,67.90
2018-06-23T01:18:10.944Z,69.60
2018-06-23T01:23:14.779Z,69.00
2018-06-23T01:28:17.828Z,69.80
2018-06-23T01:33:21.065Z,71.00
2018-06-23T01:38:24.244Z,74.20
2018-06-23T01:43:27.355Z,75.80
2018-06-23T01:48:30.371Z,76.20
2018-06-23T01:53:33.467Z,77.50
2018-06-23T01:58:36.684Z,77.10
2018-06-23T02:03:39.678Z,77.40
2018-06-23T02:08:42.918Z,76.10
2018-06-23T02:13:45.998Z,77.30
2018-06-23T02:18:54.803Z,78.20
2018-06-23T02:24:03.669Z,76.60
2018-06-23T02:29:13.168Z,77.70
2018-06-23T02:34:22.267Z,79.30
2018-06-23T02:39:26.736Z,78.90
2018-06-23T02:44:29.723Z,78.70
2018-06-23T02:49:32.759Z,77.60
2018-06-23T02:54:35.743Z,77.50
2018-06-23T02:59:38.808Z,78.00
2018-06-23T03:04:41.756Z,78.00
2018-06-23T03:09:44.891Z,77.80
2018-06-23T03:14:48.076Z,75.30
2018-06-23T03:19:51.900Z,76.60
2018-06-23T03:24:54.860Z,77.60
2018-06-23T03:29:57.840Z,75.20
2018-06-23T03:35:00.855Z,77.60
2018-06-23T03:40:03.884Z,78.10
2018-06-23T03:45:06.955Z,75.80
2018-06-23T03:50:09.941Z,74.40
2018-06-23T03:55:13.096Z,75.60
2018-06-23T04:00:16.057Z,76.00
2018-06-23T04:05:19.207Z,76.10
2018-06-23T04:10:22.425Z,74.10
2018-06-23T04:15:25.435Z,71.60
2018-06-23T04:20:29.418Z,70.80
2018-06-23T04:25:32.402Z,70.20
2018-06-23T04:30:35.374Z,68.90
2018-06-23T04:35:38.361Z,67.10
2018-06-23T04:40:41.344Z,66.80
2018-06-23T04:45:44.343Z,67.80
2018-06-23T04:50:48.280Z,68.50
2018-06-23T04:55:51.790Z,67.90
2018-06-23T05:00:55.529Z,66.00
2018-06-23T05:05:58.533Z,64.70
2018-06-23T05:11:01.579Z,62.60
2018-06-23T05:16:06.020Z,62.20
2018-06-23T05:26:11.953Z,59.50
2018-06-23T05:31:14.972Z,58.20
2018-06-23T05:36:17.989Z,57.50
2018-06-23T05:41:22.453Z,56.50
2018-06-23T05:46:25.468Z,56.30
2018-06-23T05:51:28.813Z,55.60
2018-06-23T05:56:31.808Z,55.70
2018-06-23T06:01:35.055Z,56.40
2018-06-23T06:06:38.044Z,55.90
2018-06-23T06:11:41.110Z,55.80
2018-06-23T06:17:33.100Z,56.30
2018-06-23T06:22:37.443Z,55.70
2018-06-23T06:27:40.638Z,55.10
2018-06-23T06:32:43.705Z,50.90
2018-06-23T06:37:46.748Z,44.50
2018-06-23T06:42:49.914Z,43.30
2018-06-23T06:47:52.972Z,42.40
2018-06-23T06:52:55.946Z,40.90
2018-06-23T06:57:59.205Z,40.20
2018-06-23T07:03:02.261Z,41.60
2018-06-23T07:08:05.322Z,39.70
2018-06-23T07:18:11.541Z,31.40
2018-06-23T07:23:14.551Z,28.50
2018-06-23T07:28:17.567Z,28.80
2018-06-23T07:33:20.580Z,29.10
2018-06-23T07:38:23.545Z,26.20
2018-06-23T07:43:26.843Z,23.80
2018-06-23T07:48:30.123Z,29.90
2018-06-23T07:53:33.313Z,31.10
2018-06-23T07:58:36.391Z,27.80
2018-06-23T08:08:42.518Z,28.00
2018-06-23T08:13:45.583Z,25.20
2018-06-23T08:18:48.613Z,22.30
2018-06-23T08:23:51.674Z,22.50
2018-06-23T08:28:54.895Z,22.60
2018-06-23T08:33:57.956Z,20.40
2018-06-23T08:39:00.949Z,20.70
2018-06-23T08:44:04.333Z,21.90
2018-06-23T08:49:07.553Z,22.00
2018-06-23T08:54:10.726Z,22.30
2018-06-23T08:59:13.794Z,21.30
2018-06-23T09:04:16.832Z,21.40
2018-06-23T09:09:20.261Z,24.90
2018-06-23T09:14:23.321Z,28.10
2018-06-23T09:19:26.572Z,25.60
2018-06-23T09:24:29.662Z,24.50
2018-06-23T09:29:32.676Z,24.10
2018-06-23T09:34:35.944Z,28.70
2018-06-23T09:39:39.011Z,30.00
2018-06-23T09:44:42.027Z,26.70
2018-06-23T09:49:45.341Z,25.10
2018-06-23T09:54:48.392Z,24.90
2018-06-23T09:59:51.400Z,26.00
2018-06-23T10:04:54.463Z,25.40
2018-06-23T10:09:57.637Z,25.50
2018-06-23T10:15:00.629Z,25.20
2018-06-23T10:20:04.061Z,25.80
2018-06-23T10:25:07.263Z,29.00
2018-06-23T10:30:10.468Z,33.60
2018-06-23T10:35:13.497Z,35.30
2018-06-23T10:40:16.668Z,32.70
2018-06-23T10:45:19.866Z,30.60
2018-06-23T10:50:22.904Z,33.50
2018-06-23T10:55:25.949Z,34.90
2018-06-23T11:00:29.209Z,34.50
2018-06-23T11:05:32.241Z,35.50
2018-06-23T11:15:38.823Z,35.20
2018-06-23T11:20:41.857Z,37.00
2018-06-23T11:25:44.928Z,37.90
2018-06-23T11:30:48.159Z,36.60
2018-06-23T11:35:51.360Z,39.50
2018-06-23T11:40:54.585Z,40.00
2018-06-23T11:45:57.618Z,38.40
2018-06-23T11:56:03.799Z,37.50
2018-06-23T12:01:06.809Z,34.30
2018-06-23T12:06:09.856Z,36.10
2018-06-23T12:11:12.874Z,35.10
2018-06-23T12:16:16.073Z,34.60
2018-06-23T12:21:19.273Z,35.40
2018-06-23T12:26:22.439Z,37.70
2018-06-23T12:31:25.646Z,36.90
2018-06-23T12:36:29.621Z,36.40
2018-06-23T12:41:32.813Z,36.80
2018-06-23T12:46:36.398Z,43.20
2018-06-23T12:51:39.546Z,42.00
2018-06-23T12:56:42.554Z,42.20
2018-06-23T13:01:45.608Z,43.90
2018-06-23T13:06:48.678Z,38.70
2018-06-23T13:11:51.855Z,41.00
2018-06-23T13:16:55.231Z,39.90
2018-06-23T13:21:58.350Z,37.90
2018-06-23T13:27:01.426Z,38.40
2018-06-23T13:32:04.605Z,36.90
2018-06-23T13:37:07.638Z,36.40
2018-06-23T13:42:10.677Z,36.60
2018-06-23T13:47:13.790Z,36.30
2018-06-23T13:52:16.912Z,35.80
2018-06-23T13:57:20.240Z,35.00
2018-06-23T14:02:23.511Z,33.30
2018-06-23T14:12:29.908Z,34.10
2018-06-23T14:17:32.891Z,33.80
2018-06-23T14:22:35.907Z,34.70
2018-06-23T14:27:38.906Z,34.30
2018-06-23T14:32:41.974Z,34.90
2018-06-23T14:37:45.026Z,35.20
2018-06-23T14:42:48.078Z,32.80
2018-06-23T14:47:51.147Z,33.20
2018-06-23T14:52:54.450Z,34.40
2018-06-23T14:57:57.552Z,34.60
2018-06-23T15:03:00.657Z,34.20
2018-06-23T15:08:20.905Z,34.00
2018-06-23T15:13:23.911Z,33.90
2018-06-23T15:18:26.911Z,34.10
2018-06-23T15:28:33.078Z,35.00
2018-06-23T15:33:36.136Z,34.30
2018-06-23T15:38:39.304Z,34.80
2018-06-23T15:43:42.332Z,35.60
2018-06-23T15:48:45.667Z,38.30
2018-06-23T15:53:48.731Z,38.40
2018-06-23T15:58:51.926Z,37.80
2018-06-23T16:03:55.256Z,38.80
2018-06-23T16:08:58.548Z,39.40
2018-06-23T16:14:01.574Z,37.60
2018-06-23T16:24:08.176Z,35.60
2018-06-23T16:29:11.240Z,38.40
2018-06-23T16:34:14.297Z,37.00
2018-06-23T16:39:17.315Z,37.90
2018-06-23T16:44:20.366Z,40.10
2018-06-23T16:49:23.574Z,41.80
2018-06-23T16:54:27.179Z,41.90
2018-06-23T16:59:30.471Z,43.20
2018-06-23T17:04:33.540Z,42.20
2018-06-23T17:09:36.812Z,41.80
2018-06-23T17:14:40.079Z,42.50
2018-06-23T17:19:43.430Z,42.40
2018-06-23T17:24:46.656Z,41.00
2018-06-23T17:29:49.792Z,41.00
2018-06-23T17:39:56.718Z,42.80
2018-06-23T17:45:00.015Z,42.70
2018-06-23T17:50:03.264Z,41.80
2018-06-23T17:55:06.744Z,42.30
2018-06-23T18:00:09.828Z,42.60
2018-06-23T18:05:12.868Z,44.30
2018-06-23T18:10:16.166Z,45.90
2018-06-23T18:15:19.205Z,44.70
2018-06-23T18:20:22.493Z,44.30
2018-06-23T18:25:25.682Z,45.00
2018-06-23T18:30:28.812Z,45.60
2018-06-23T18:35:32.599Z,45.70
2018-06-23T18:40:35.662Z,46.40
2018-06-23T18:45:38.930Z,46.60
2018-06-23T18:50:41.963Z,47.30
2018-06-23T18:55:45.142Z,47.50
2018-06-23T19:00:48.644Z,48.50
2018-06-23T19:05:51.761Z,48.50
2018-06-23T19:10:54.801Z,49.00
2018-06-23T19:15:58.208Z,49.80
2018-06-23T19:21:01.238Z,50.50
2018-06-23T19:26:04.648Z,50.20
2018-06-23T19:31:07.985Z,51.30
2018-06-23T19:36:10.977Z,51.90
2018-06-23T19:41:23.550Z,53.20
2018-06-23T19:46:26.718Z,52.90
2018-06-23T19:51:29.865Z,53.40
2018-06-23T19:56:33.307Z,54.10
2018-06-23T20:06:39.995Z,54.40
2018-06-23T20:11:43.247Z,54.80
2018-06-23T20:16:46.731Z,55.30
2018-06-23T20:21:49.880Z,55.80
2018-06-23T20:26:53.042Z,55.80
2018-06-23T20:31:56.321Z,55.90
2018-06-23T20:36:59.457Z,56.50
2018-06-23T20:42:02.733Z,56.80
2018-06-23T20:47:06.075Z,57.30
2018-06-23T20:52:09.394Z,58.00
2018-06-23T20:57:12.449Z,58.20
2018-06-23T21:02:15.579Z,59.40
2018-06-23T21:07:18.991Z,59.20
2018-06-23T21:12:22.316Z,59.40
2018-06-23T21:17:25.785Z,59.90
2018-06-23T21:22:28.960Z,60.40
2018-06-23T21:27:32.216Z,60.70
2018-06-23T21:32:35.519Z,61.20
2018-06-23T21:37:38.995Z,61.70
2018-06-23T21:42:42.276Z,62.50
2018-06-23T21:47:45.404Z,62.10
2018-06-23T21:52:48.936Z,62.50
2018-06-23T21:57:52.349Z,62.90
2018-06-23T22:02:55.687Z,62.40
2018-06-23T22:07:59.441Z,63.60
2018-06-23T22:13:02.976Z,65.70
2018-06-23T22:18:06.177Z,67.10
2018-06-23T22:23:09.500Z,67.80
2018-06-23T22:28:12.812Z,67.80
2018-06-23T22:33:15.899Z,67.90
2018-06-23T22:38:18.942Z,67.00
2018-06-23T22:43:22.233Z,66.40
2018-06-23T22:48:25.555Z,65.50
2018-06-23T22:53:28.641Z,65.00
2018-06-23T22:58:31.895Z,64.40
2018-06-23T23:03:35.311Z,63.40
2018-06-23T23:08:39.108Z,62.50
2018-06-23T23:13:42.499Z,62.10
2018-06-23T23:18:45.917Z,61.80
2018-06-23T23:23:49.441Z,62.10
2018-06-23T23:28:52.743Z,61.80
2018-06-23T23:33:56.271Z,62.00
2018-06-23T23:38:59.764Z,63.30
2018-06-23T23:44:03.475Z,63.90
2018-06-23T23:49:06.540Z,64.00
2018-06-23T23:54:09.806Z,64.50
2018-06-23T23:59:12.793Z,63.90
